Jaffrey, New Hampshire
Current Conditions -  °F | °C
As of 7:19 AM on Sunday 23 Nov 2014 (Local Time) from KAFN Reporting Station
Broken Clouds Broken Clouds  
Wind Chill: -1°   Ceiling: 2600
Heat Index:   Visibility: 10mi
Dew Point: -2°   Wind: 8mph
Humidity: 73%   Direction: 190°S
Pressure: 30.08"   Gusts: NA
Location:  42.81°N, 72.02°W
Report Text: KAFN 231219Z AUTO 19007KT 10SM BKN026 BKN080 BKN095 02/M02 A3008 RMK AO2 T00221022
Loading
Personal Weather Stations






























Interactive Weather Map New forecast layout! Learn more

10-Day Weather Forecast

Advertisements
Track Severe Weather on mobile